createdAt,value
2019-03-06T10:26:22.808Z,20.73
2019-03-06T10:27:22.759Z,20.73
2019-03-06T10:28:27.825Z,20.71
2019-03-06T10:29:23.666Z,20.57
2019-03-06T10:30:22.618Z,20.40
2019-03-06T10:31:22.569Z,20.41
2019-03-06T10:32:22.537Z,20.42
2019-03-06T10:33:22.474Z,20.60
2019-03-06T10:34:22.418Z,20.64
2019-03-06T10:35:22.366Z,20.68
2019-03-06T10:36:22.318Z,20.69
2019-03-06T10:37:22.258Z,20.76
2019-03-06T10:38:22.180Z,20.71
2019-03-06T10:39:22.111Z,20.73
2019-03-06T10:40:22.041Z,20.68
2019-03-06T10:41:21.983Z,20.73
2019-03-06T10:42:21.965Z,20.72
2019-03-06T10:43:23.693Z,20.78
2019-03-06T10:44:28.801Z,20.69
2019-03-06T10:45:22.717Z,20.79
2019-03-06T10:46:21.651Z,20.82
2019-03-06T10:47:21.612Z,20.69
2019-03-06T10:48:21.519Z,20.73
2019-03-06T10:49:21.451Z,20.61
2019-03-06T10:50:26.809Z,20.51
2019-03-06T10:51:22.321Z,20.42
2019-03-06T10:52:21.247Z,20.44
2019-03-06T10:53:21.185Z,20.42
2019-03-06T10:54:21.119Z,20.42
2019-03-06T10:55:21.062Z,20.58
2019-03-06T10:56:20.987Z,20.68
2019-03-06T10:57:20.959Z,20.63
2019-03-06T10:58:20.869Z,20.72
2019-03-06T10:59:20.781Z,20.79
2019-03-06T11:00:20.706Z,20.72
2019-03-06T11:01:20.636Z,20.72
2019-03-06T11:02:20.573Z,20.72
2019-03-06T11:03:20.514Z,20.71
2019-03-06T11:04:20.436Z,20.73
2019-03-06T11:05:20.367Z,20.71
2019-03-06T11:06:20.297Z,20.81
2019-03-06T11:07:20.225Z,20.90
2019-03-06T11:08:20.169Z,20.83
2019-03-06T11:09:20.089Z,20.72
2019-03-06T11:10:23.964Z,20.66
2019-03-06T11:11:20.945Z,20.69
2019-03-06T11:12:19.871Z,20.76
2019-03-06T11:13:19.821Z,20.75
2019-03-06T11:14:19.742Z,20.69
2019-03-06T11:15:19.659Z,20.79
2019-03-06T11:16:19.588Z,20.72
2019-03-06T11:17:19.526Z,20.88
2019-03-06T11:18:19.456Z,20.83
2019-03-06T11:19:19.366Z,20.81
2019-03-06T11:20:19.293Z,20.72
2019-03-06T11:21:19.222Z,20.72
2019-03-06T11:22:19.147Z,20.72
2019-03-06T11:23:19.082Z,20.54
2019-03-06T11:24:19.001Z,20.53
2019-03-06T11:25:18.929Z,20.57
2019-03-06T11:26:18.853Z,20.41
2019-03-06T11:27:18.798Z,20.46
2019-03-06T11:28:18.722Z,20.41
2019-03-06T11:29:19.495Z,20.48
2019-03-06T11:30:18.570Z,20.48
2019-03-06T11:31:18.501Z,20.44
2019-03-06T11:32:18.421Z,20.38
2019-03-06T11:33:18.359Z,20.42
2019-03-06T11:34:18.276Z,20.40
2019-03-06T11:35:18.209Z,20.44
2019-03-06T11:36:18.130Z,20.42
2019-03-06T11:37:18.057Z,20.42
2019-03-06T11:38:17.996Z,20.38
2019-03-06T11:39:17.894Z,20.33
2019-03-06T11:40:17.815Z,20.30
2019-03-06T11:41:17.749Z,20.38
2019-03-06T11:42:17.666Z,20.30
2019-03-06T11:43:17.592Z,20.30
2019-03-06T11:44:17.528Z,20.31
2019-03-06T11:45:17.453Z,20.35
2019-03-06T11:46:17.374Z,20.33
2019-03-06T11:47:17.294Z,20.34
2019-03-06T11:48:17.220Z,20.30
2019-03-06T11:49:17.161Z,20.26
2019-03-06T11:50:17.089Z,20.31
2019-03-06T11:51:17.003Z,20.34
2019-03-06T11:52:16.929Z,20.27
2019-03-06T11:53:16.851Z,20.31
2019-03-06T11:54:16.881Z,20.27
2019-03-06T11:55:16.707Z,20.31
2019-03-06T11:56:16.636Z,20.31
2019-03-06T11:57:16.563Z,20.33
2019-03-06T11:58:16.489Z,20.38
2019-03-06T11:59:16.425Z,20.31
2019-03-06T12:00:16.345Z,20.33
2019-03-06T12:01:16.271Z,20.30
2019-03-06T12:02:16.958Z,20.31
2019-03-06T12:03:16.119Z,20.37
2019-03-06T12:04:16.069Z,20.40
2019-03-06T12:05:15.970Z,20.37
2019-03-06T12:06:15.897Z,20.35
2019-03-06T12:07:15.873Z,20.26
2019-03-06T12:08:15.758Z,20.34
2019-03-06T12:09:15.695Z,20.38
2019-03-06T12:10:15.620Z,20.23
2019-03-06T12:11:15.541Z,20.25
2019-03-06T12:12:15.466Z,20.31
2019-03-06T12:13:15.391Z,20.20
2019-03-06T12:14:15.331Z,20.30
2019-03-06T12:15:15.247Z,20.30
2019-03-06T12:16:15.165Z,20.26
2019-03-06T12:17:15.100Z,20.30
2019-03-06T12:18:15.013Z,20.26
2019-03-06T12:19:14.955Z,20.22
2019-03-06T12:20:14.862Z,20.26
2019-03-06T12:21:14.789Z,20.17
2019-03-06T12:22:14.723Z,20.25
2019-03-06T12:23:14.639Z,20.25
2019-03-06T12:24:14.574Z,20.25
2019-03-06T12:25:14.491Z,20.22
2019-03-06T12:26:14.424Z,20.27
2019-03-06T12:27:14.351Z,20.26
2019-03-06T12:28:14.279Z,20.33
2019-03-06T12:29:14.225Z,20.23
2019-03-06T12:30:14.144Z,20.17
2019-03-06T12:31:14.083Z,20.16
2019-03-06T12:32:14.017Z,20.20
2019-03-06T12:33:13.942Z,20.26
2019-03-06T12:34:13.867Z,20.33
2019-03-06T12:35:13.824Z,20.31
2019-03-06T12:36:13.738Z,20.20
2019-03-06T12:37:13.680Z,20.26
2019-03-06T12:38:13.664Z,20.31
2019-03-06T12:39:13.550Z,20.30
2019-03-06T12:40:14.853Z,20.31
2019-03-06T12:41:13.398Z,20.30
2019-03-06T12:42:14.567Z,20.30
2019-03-06T12:43:13.254Z,20.25
